Time;durP1;ratioP1;P1;durP2;ratioP2;P2;SDS_P1;SDS_P2;PMS_P1;PMS_P2;Temp;Humidity;BMP_temperature;BMP_pressure;BME280_temperature;BME280_humidity;BME280_pressure;Samples;Min_cycle;Max_cycle;Signal;HPM_P1;HPM_P2
2022/06/24 00:00:09;;;;;;;4.93;4.53;;;21.00;99.90;;;;;;5026064;28;20287;-73
2022/06/24 00:02:35;;;;;;;6.47;4.82;;;21.10;99.90;;;;;;5023398;28;20660;-73
2022/06/24 00:05:05;;;;;;;5.20;4.70;;;21.20;99.90;;;;;;5028152;28;20181;-73
2022/06/24 00:07:46;;;;;;;5.45;4.95;;;21.20;99.90;;;;;;5029761;28;20172;-73
2022/06/24 00:10:13;;;;;;;4.85;4.43;;;21.30;99.90;;;;;;5032236;28;20570;-73
2022/06/24 00:12:39;;;;;;;5.25;4.85;;;21.20;99.90;;;;;;5030826;28;20291;-73
2022/06/24 00:15:05;;;;;;;4.70;4.20;;;21.30;99.90;;;;;;5032246;28;20264;-74
2022/06/24 00:17:34;;;;;;;5.13;4.63;;;21.30;99.90;;;;;;5011759;28;20211;-72
2022/06/24 00:20:03;;;;;;;4.72;4.32;;;21.30;99.90;;;;;;5012788;28;20201;-72
2022/06/24 00:22:30;;;;;;;4.50;4.20;;;21.30;99.90;;;;;;5016804;28;20200;-72
2022/06/24 00:25:12;;;;;;;5.38;4.38;;;21.40;99.90;;;;;;5035883;28;20173;-73
2022/06/24 00:27:39;;;;;;;4.45;4.15;;;21.50;99.90;;;;;;5035119;28;20600;-72
2022/06/24 00:30:15;;;;;;;5.05;4.50;;;21.50;99.90;;;;;;5036282;28;20200;-73
2022/06/24 00:32:42;;;;;;;4.43;4.03;;;21.50;99.90;;;;;;5035877;28;20190;-74
2022/06/24 00:35:15;;;;;;;5.72;4.40;;;21.50;99.90;;;;;;5016450;28;20185;-73
2022/06/24 00:37:42;;;;;;;5.35;4.30;;;21.40;99.90;;;;;;5023149;28;20216;-73
2022/06/24 00:40:11;;;;;;;4.72;4.32;;;21.50;99.90;;;;;;5016604;28;20201;-73
2022/06/24 00:42:38;;;;;;;4.82;4.45;;;21.40;99.90;;;;;;5015618;28;20185;-74
2022/06/24 00:45:25;;;;;;;4.80;4.38;;;21.30;99.90;;;;;;5029978;28;20647;-74
2022/06/24 00:47:53;;;;;;;4.45;4.15;;;21.20;99.90;;;;;;5036020;28;20187;-73
2022/06/24 00:50:31;;;;;;;4.60;4.30;;;21.00;99.90;;;;;;5033238;28;20180;-73
2022/06/24 00:53:00;;;;;;;4.78;4.38;;;21.00;99.90;;;;;;5024271;28;20227;-73
2022/06/24 00:55:31;;;;;;;5.15;4.75;;;20.90;99.90;;;;;;5032735;28;20180;-74
2022/06/24 00:58:00;;;;;;;5.00;4.60;;;20.80;99.90;;;;;;5035478;28;20188;-74
2022/06/24 01:00:29;;;;;;;4.63;4.22;;;20.80;99.90;;;;;;5025958;28;20291;-74
2022/06/24 01:03:04;;;;;;;4.90;4.47;;;20.70;99.90;;;;;;5030388;28;20196;-73
2022/06/24 01:05:32;;;;;;;5.13;4.72;;;20.60;99.90;;;;;;5045611;28;20188;-73
2022/06/24 01:07:58;;;;;;;4.45;4.15;;;20.60;99.90;;;;;;5034816;28;20260;-74
2022/06/24 01:10:25;;;;;;;4.90;4.60;;;20.70;99.90;;;;;;5017889;28;20666;-73
2022/06/24 01:12:51;;;;;;;5.13;4.72;;;20.70;99.90;;;;;;5029883;28;20239;-74
2022/06/24 01:15:17;;;;;;;5.43;4.72;;;20.60;99.90;;;;;;5034766;28;20250;-75
2022/06/24 01:17:43;;;;;;;4.78;4.40;;;20.60;99.90;;;;;;5030745;28;20644;-74
2022/06/24 01:20:11;;;;;;;4.88;4.47;;;20.60;99.90;;;;;;5015611;28;20292;-74
2022/06/24 01:22:38;;;;;;;5.72;5.22;;;20.60;99.90;;;;;;5015071;28;20286;-74
2022/06/24 01:25:04;;;;;;;5.05;4.65;;;20.60;99.90;;;;;;5015987;28;20256;-75
2022/06/24 01:27:30;;;;;;;7.65;5.05;;;20.60;99.90;;;;;;5015450;28;20530;-74
2022/06/24 01:29:56;;;;;;;5.38;4.97;;;20.60;99.90;;;;;;5015555;28;20199;-74
2022/06/24 01:32:21;;;;;;;5.55;5.10;;;20.60;99.90;;;;;;5014657;28;20183;-74
2022/06/24 01:34:47;;;;;;;5.00;4.57;;;20.50;99.90;;;;;;5022126;28;20259;-74
2022/06/24 01:37:13;;;;;;;5.15;4.63;;;20.50;99.90;;;;;;5027812;28;20181;-73
2022/06/24 01:39:39;;;;;;;7.25;4.50;;;20.50;99.90;;;;;;5034886;28;20663;-73
2022/06/24 01:42:05;;;;;;;5.30;4.88;;;20.50;99.90;;;;;;5034605;28;20537;-74
2022/06/24 01:44:31;;;;;;;5.47;5.00;;;20.40;99.90;;;;;;5021863;28;20181;-73
2022/06/24 01:46:56;;;;;;;6.13;5.40;;;20.40;99.90;;;;;;5015225;28;20642;-72
2022/06/24 01:49:22;;;;;;;6.30;5.70;;;20.40;99.90;;;;;;5015197;28;20680;-72
2022/06/24 01:51:50;;;;;;;6.50;6.00;;;20.40;99.90;;;;;;5015517;28;20283;-72
2022/06/24 01:54:16;;;;;;;6.93;6.32;;;20.30;99.90;;;;;;5014930;28;20200;-72
2022/06/24 01:56:42;;;;;;;6.25;5.78;;;20.30;99.90;;;;;;5025231;28;20184;-73
2022/06/24 01:59:08;;;;;;;7.35;6.68;;;20.20;99.90;;;;;;5034639;28;20678;-73
2022/06/24 02:01:33;;;;;;;7.00;6.50;;;20.20;99.90;;;;;;5019981;28;20640;-73
2022/06/24 02:03:59;;;;;;;6.35;5.85;;;20.10;99.90;;;;;;5030196;28;20193;-73
2022/06/24 02:06:25;;;;;;;6.90;6.13;;;20.10;99.90;;;;;;5016876;28;20181;-74
2022/06/24 02:08:51;;;;;;;7.97;6.10;;;20.20;99.90;;;;;;5014801;28;20184;-73
2022/06/24 02:14:04;;;;;;;6.60;5.90;;;20.10;99.90;;;;;;5014766;28;20620;-73
2022/06/24 02:16:30;;;;;;;6.18;5.68;;;20.10;99.90;;;;;;5015093;28;20169;-73
2022/06/24 02:18:56;;;;;;;7.10;6.00;;;20.10;99.90;;;;;;5014486;28;20256;-73
2022/06/24 02:21:24;;;;;;;6.65;6.13;;;20.10;99.90;;;;;;5032058;28;20272;-73
2022/06/24 02:23:50;;;;;;;6.03;5.40;;;20.10;99.90;;;;;;5019077;28;20213;-73
2022/06/24 02:26:16;;;;;;;6.63;6.05;;;20.10;99.90;;;;;;5014461;28;20205;-74
2022/06/24 02:28:42;;;;;;;7.15;6.25;;;20.00;99.90;;;;;;5023141;28;20207;-74
2022/06/24 02:31:07;;;;;;;7.60;6.47;;;19.90;99.90;;;;;;5033646;28;20200;-74
2022/06/24 02:33:33;;;;;;;7.30;6.70;;;19.90;99.90;;;;;;5030311;28;20295;-73
2022/06/24 02:36:00;;;;;;;6.50;5.90;;;19.90;99.90;;;;;;5014170;28;20213;-72
2022/06/24 02:38:25;;;;;;;6.35;5.75;;;19.90;99.90;;;;;;5013803;28;20185;-72
2022/06/24 02:40:52;;;;;;;6.78;6.07;;;20.00;99.90;;;;;;5014307;28;20735;-73
2022/06/24 02:43:22;;;;;;;6.43;5.93;;;20.00;99.90;;;;;;5013161;28;20194;-73
2022/06/24 02:45:53;;;;;;;6.00;5.60;;;20.00;99.90;;;;;;5021127;28;20223;-73
2022/06/24 02:48:21;;;;;;;6.80;6.20;;;20.00;99.90;;;;;;5028179;28;20760;-74
2022/06/24 02:50:48;;;;;;;6.57;6.07;;;20.00;99.90;;;;;;5033812;28;20204;-74
2022/06/24 02:53:15;;;;;;;6.43;5.88;;;20.00;99.90;;;;;;5039467;28;20295;-72
2022/06/24 02:55:42;;;;;;;6.20;5.70;;;20.00;99.90;;;;;;5046718;28;20184;-72
2022/06/24 02:58:07;;;;;;;6.72;6.13;;;20.00;99.90;;;;;;5036196;28;20216;-72
2022/06/24 03:00:34;;;;;;;6.70;6.13;;;20.00;99.90;;;;;;5033443;28;20224;-73
2022/06/24 03:03:00;;;;;;;6.97;6.38;;;20.00;99.90;;;;;;5024754;28;20197;-73
2022/06/24 03:05:25;;;;;;;6.18;5.63;;;20.00;99.90;;;;;;5012519;28;20184;-73
2022/06/24 03:07:52;;;;;;;5.80;5.40;;;20.10;99.90;;;;;;5013898;28;20177;-73
2022/06/24 03:10:18;;;;;;;6.10;5.60;;;20.20;99.90;;;;;;5013962;28;20308;-72
2022/06/24 03:12:44;;;;;;;6.00;5.60;;;20.30;99.90;;;;;;5027051;28;20620;-73
2022/06/24 03:15:10;;;;;;;6.13;5.63;;;20.30;99.90;;;;;;5033504;28;20652;-73
2022/06/24 03:17:36;;;;;;;7.53;5.57;;;20.30;99.90;;;;;;5033012;28;20181;-73
2022/06/24 03:20:06;;;;;;;6.03;5.53;;;20.40;99.90;;;;;;5031523;28;20201;-73
2022/06/24 03:22:32;;;;;;;6.60;5.97;;;20.50;99.90;;;;;;5019185;28;20201;-73
2022/06/24 03:24:57;;;;;;;6.50;6.00;;;20.70;99.90;;;;;;5013610;28;20265;-73
2022/06/24 03:27:23;;;;;;;7.15;6.50;;;20.70;99.90;;;;;;5012154;28;20521;-73
2022/06/24 03:29:49;;;;;;;6.22;5.75;;;20.70;99.90;;;;;;5020287;28;20189;-73
2022/06/24 03:32:14;;;;;;;6.90;6.20;;;20.80;99.90;;;;;;5019370;28;20185;-73
2022/06/24 03:34:40;;;;;;;6.88;6.30;;;20.80;99.90;;;;;;5013094;28;20177;-72
2022/06/24 03:37:06;;;;;;;6.88;6.18;;;20.90;99.90;;;;;;5013286;28;20756;-74
2022/06/24 03:39:31;;;;;;;6.85;6.18;;;21.00;99.90;;;;;;5020944;28;20201;-73
2022/06/24 03:41:57;;;;;;;7.38;6.03;;;21.10;99.90;;;;;;5012968;28;20545;-73
2022/06/24 03:44:23;;;;;;;7.10;6.18;;;21.20;99.90;;;;;;5011807;28;20308;-73
2022/06/24 03:46:48;;;;;;;7.95;6.78;;;21.20;99.90;;;;;;5015552;28;20721;-73
2022/06/24 03:49:15;;;;;;;6.97;6.22;;;21.10;99.90;;;;;;5030680;28;20177;-74
2022/06/24 03:51:41;;;;;;;7.13;6.13;;;21.20;99.90;;;;;;5031080;28;20315;-73
2022/06/24 03:54:07;;;;;;;6.65;6.15;;;21.30;99.90;;;;;;5032286;28;20648;-73
2022/06/24 03:56:32;;;;;;;7.03;6.35;;;21.20;99.90;;;;;;5019353;28;20191;-73
2022/06/24 03:58:58;;;;;;;6.50;6.10;;;21.20;99.90;;;;;;5012639;28;20173;-72
2022/06/24 04:01:23;;;;;;;6.57;5.97;;;21.30;99.90;;;;;;5021845;28;20177;-72
2022/06/24 04:03:49;;;;;;;5.95;5.57;;;21.30;99.90;;;;;;5030866;28;20207;-72
2022/06/24 04:06:15;;;;;;;6.30;5.80;;;21.30;99.90;;;;;;5032397;28;20210;-72
2022/06/24 04:08:40;;;;;;;6.90;6.40;;;21.10;99.90;;;;;;5031233;28;20667;-72
2022/06/24 04:11:11;;;;;;;7.68;7.00;;;21.00;99.90;;;;;;5018071;28;20276;-72
2022/06/24 04:13:37;;;;;;;6.93;6.35;;;20.90;99.90;;;;;;5013962;28;20196;-72
2022/06/24 04:16:02;;;;;;;7.32;6.63;;;20.70;99.90;;;;;;5027092;28;20189;-73
2022/06/24 04:18:28;;;;;;;7.40;6.63;;;20.60;99.90;;;;;;5023608;28;20180;-73
2022/06/24 04:20:53;;;;;;;6.60;6.00;;;20.60;99.90;;;;;;5032458;28;20210;-73
2022/06/24 04:23:19;;;;;;;7.38;6.75;;;20.40;99.90;;;;;;5031857;28;20203;-74
2022/06/24 04:25:49;;;;;;;8.45;7.57;;;20.20;99.90;;;;;;5031204;28;20215;-72
2022/06/24 04:28:14;;;;;;;26.67;12.18;;;20.20;99.90;;;;;;5025854;28;20173;-76
2022/06/24 04:30:40;;;;;;;17.35;11.85;;;20.20;99.90;;;;;;5014677;28;20205;-75
2022/06/24 04:33:06;;;;;;;18.25;12.30;;;19.90;99.90;;;;;;5031322;28;20571;-74
2022/06/24 04:35:32;;;;;;;32.70;12.60;;;19.50;99.90;;;;;;5028554;28;20220;-74
2022/06/24 04:37:57;;;;;;;14.70;11.52;;;19.20;99.90;;;;;;5012226;28;20181;-74
2022/06/24 04:40:23;;;;;;;11.77;10.57;;;18.90;99.90;;;;;;5012652;28;20204;-75
2022/06/24 04:42:49;;;;;;;16.65;10.23;;;18.70;99.90;;;;;;5018591;28;20215;-75
2022/06/24 04:45:15;;;;;;;12.75;11.45;;;18.60;99.90;;;;;;5027380;28;20568;-75
2022/06/24 04:47:41;;;;;;;11.70;10.55;;;18.70;99.90;;;;;;5023197;28;20558;-75
2022/06/24 04:50:08;;;;;;;12.23;10.73;;;18.60;99.90;;;;;;5032188;28;20172;-75
2022/06/24 04:52:35;;;;;;;13.40;12.20;;;18.60;99.90;;;;;;5030504;28;20299;-76
2022/06/24 04:55:01;;;;;;;17.23;13.30;;;18.70;99.90;;;;;;5024422;28;20176;-75
2022/06/24 04:57:27;;;;;;;17.75;14.15;;;18.80;99.90;;;;;;5029332;28;20181;-74
2022/06/24 04:59:53;;;;;;;16.90;14.52;;;18.80;99.90;;;;;;5025407;28;20201;-74
2022/06/24 05:02:19;;;;;;;15.23;12.70;;;18.80;99.90;;;;;;5018831;28;20295;-75
2022/06/24 05:04:44;;;;;;;12.52;10.68;;;18.70;99.90;;;;;;5016191;28;20185;-75
2022/06/24 05:07:10;;;;;;;15.85;11.55;;;18.70;99.90;;;;;;5025339;28;20268;-75
2022/06/24 05:09:36;;;;;;;10.65;9.75;;;18.70;99.90;;;;;;5028396;28;20257;-74
2022/06/24 05:12:02;;;;;;;12.15;10.38;;;18.70;99.90;;;;;;5025583;28;20271;-75
2022/06/24 05:14:29;;;;;;;12.88;11.20;;;18.90;99.90;;;;;;5024937;28;20235;-75
2022/06/24 05:16:55;;;;;;;12.80;11.45;;;18.90;99.90;;;;;;5027051;28;20177;-75
2022/06/24 05:19:21;;;;;;;12.02;10.40;;;19.00;99.90;;;;;;5028926;28;20277;-75
2022/06/24 05:21:47;;;;;;;12.60;10.45;;;19.00;99.90;;;;;;5035111;28;20636;-74
2022/06/24 05:24:13;;;;;;;15.50;11.50;;;19.10;99.90;;;;;;5024830;28;20201;-74
2022/06/24 05:26:43;;;;;;;10.57;9.60;;;19.10;99.90;;;;;;5021798;28;20188;-76
2022/06/24 05:29:10;;;;;;;10.68;9.70;;;19.20;99.90;;;;;;5034251;28;20173;-75
2022/06/24 05:31:35;;;;;;;8.60;7.70;;;19.20;99.90;;;;;;5031944;28;20623;-76
2022/06/24 05:34:01;;;;;;;10.15;7.88;;;19.20;99.90;;;;;;5025972;28;20209;-77
2022/06/24 05:36:27;;;;;;;10.07;6.72;;;19.30;99.90;;;;;;5015405;28;20200;-77
2022/06/24 05:38:52;;;;;;;9.55;6.55;;;19.30;99.90;;;;;;5020853;28;20659;-77
2022/06/24 05:41:18;;;;;;;7.90;7.18;;;19.40;99.90;;;;;;5027540;28;20228;-79
2022/06/24 05:43:45;;;;;;;6.78;6.00;;;19.50;99.90;;;;;;5031304;28;20193;-77
2022/06/24 05:46:11;;;;;;;7.28;6.68;;;19.60;99.90;;;;;;5030257;28;20189;-78
2022/06/24 05:48:37;;;;;;;7.95;7.07;;;19.70;99.90;;;;;;5018410;28;20185;-78
2022/06/24 05:51:11;;;;;;;9.13;7.20;;;19.90;99.90;;;;;;5033214;28;20191;-76
2022/06/24 05:56:22;;;;;;;8.82;7.25;;;19.90;99.90;;;;;;5022855;28;20179;-76
2022/06/24 05:58:48;;;;;;;7.63;7.03;;;19.90;99.90;;;;;;5023347;28;20186;-77
2022/06/24 06:01:14;;;;;;;8.32;6.47;;;19.90;99.90;;;;;;5014139;28;20742;-76
2022/06/24 06:03:40;;;;;;;9.45;7.07;;;19.80;99.90;;;;;;5028135;28;20211;-77
2022/06/24 06:06:07;;;;;;;7.05;6.35;;;19.90;99.90;;;;;;5017788;28;20227;-77
2022/06/24 06:08:36;;;;;;;7.15;5.32;;;20.00;99.90;;;;;;5021289;28;20181;-77
2022/06/24 06:11:13;;;;;;;7.50;6.20;;;20.10;99.90;;;;;;5024658;28;20177;-76
2022/06/24 06:13:40;;;;;;;5.65;5.15;;;20.30;99.90;;;;;;5023637;28;20215;-77
2022/06/24 06:16:06;;;;;;;6.30;5.78;;;20.50;99.90;;;;;;5023223;28;20184;-78
2022/06/24 06:18:32;;;;;;;6.20;5.57;;;20.50;99.90;;;;;;5030165;28;20176;-77
2022/06/24 06:21:05;;;;;;;5.80;5.18;;;20.70;99.90;;;;;;5027111;28;20227;-77
2022/06/24 06:23:31;;;;;;;7.68;5.90;;;20.70;99.90;;;;;;5033411;28;20702;-79
2022/06/24 06:25:58;;;;;;;5.15;4.53;;;20.60;99.90;;;;;;5021203;28;20212;-77
2022/06/24 06:28:25;;;;;;;6.78;4.82;;;20.40;99.90;;;;;;5013974;28;20180;-78
2022/06/24 06:30:50;;;;;;;5.10;4.57;;;20.40;99.90;;;;;;5013717;28;20189;-78
2022/06/24 06:33:16;;;;;;;5.35;4.50;;;20.50;99.90;;;;;;5027896;28;20196;-78
2022/06/24 06:35:42;;;;;;;4.57;3.88;;;20.50;99.90;;;;;;5032568;28;20538;-79
2022/06/24 06:38:07;;;;;;;4.75;3.20;;;20.70;99.90;;;;;;5033457;28;20183;-79
2022/06/24 06:40:39;;;;;;;4.57;4.03;;;20.80;99.90;;;;;;5033244;28;20203;-79
2022/06/24 06:43:06;;;;;;;6.75;3.80;;;20.90;99.90;;;;;;5017142;28;20302;-78
2022/06/24 06:45:32;;;;;;;4.10;3.80;;;21.30;99.90;;;;;;5013701;28;20674;-79
2022/06/24 06:48:00;;;;;;;4.07;3.63;;;21.60;99.90;;;;;;5016258;28;20209;-79
2022/06/24 06:50:26;;;;;;;4.88;3.30;;;21.80;99.90;;;;;;5013452;28;20240;-79
2022/06/24 06:52:52;;;;;;;5.40;2.97;;;21.90;99.90;;;;;;5013050;28;20225;-79
2022/06/24 06:55:17;;;;;;;3.58;3.28;;;22.00;99.90;;;;;;5015035;28;20179;-79
2022/06/24 06:57:43;;;;;;;4.25;3.40;;;22.40;99.90;;;;;;5025491;28;20264;-78
2022/06/24 07:00:09;;;;;;;5.18;3.40;;;22.50;99.90;;;;;;5021185;28;20204;-78
2022/06/24 07:02:39;;;;;;;4.82;2.80;;;22.40;99.90;;;;;;5018660;28;20529;-76
2022/06/24 07:05:05;;;;;;;6.55;3.40;;;22.40;99.90;;;;;;5026185;28;20272;-78
2022/06/24 07:07:31;;;;;;;6.70;2.95;;;22.40;99.90;;;;;;5025236;28;20203;-78
2022/06/24 07:09:57;;;;;;;3.85;3.55;;;22.60;99.90;;;;;;5020725;28;20181;-78
2022/06/24 07:12:23;;;;;;;4.50;3.10;;;22.80;99.90;;;;;;5022208;28;20181;-78
2022/06/24 07:14:49;;;;;;;3.92;3.13;;;22.90;99.90;;;;;;5022392;28;20246;-76
2022/06/24 07:17:16;;;;;;;3.70;2.80;;;23.20;99.90;;;;;;5012604;28;20189;-76
2022/06/24 07:19:42;;;;;;;3.58;2.90;;;23.40;99.90;;;;;;5015848;28;20547;-75
2022/06/24 07:22:07;;;;;;;3.90;2.58;;;23.70;99.90;;;;;;5022676;28;20227;-75
2022/06/24 07:24:33;;;;;;;3.72;2.40;;;23.90;99.90;;;;;;5021704;28;20540;-75
2022/06/24 07:27:03;;;;;;;3.80;2.85;;;24.00;99.90;;;;;;5031195;28;20173;-76
2022/06/24 07:29:31;;;;;;;4.65;2.92;;;24.20;99.90;;;;;;5031077;28;20197;-74
2022/06/24 07:31:57;;;;;;;8.75;2.30;;;24.30;99.90;;;;;;5013753;28;20280;-74
2022/06/24 07:34:22;;;;;;;5.03;2.67;;;24.20;99.90;;;;;;5012138;28;20798;-74
2022/06/24 07:36:48;;;;;;;2.90;2.40;;;24.20;99.90;;;;;;5012347;28;20173;-75
2022/06/24 07:39:13;;;;;;;3.90;2.15;;;24.30;99.90;;;;;;5025535;28;20211;-74
2022/06/24 07:41:39;;;;;;;4.55;2.92;;;24.40;99.90;;;;;;5031987;28;20355;-74
2022/06/24 07:44:05;;;;;;;2.72;2.53;;;24.50;99.90;;;;;;5029389;28;20275;-74
2022/06/24 07:46:30;;;;;;;5.07;2.55;;;24.40;99.90;;;;;;5012391;28;20169;-74
2022/06/24 07:48:56;;;;;;;3.58;2.55;;;24.60;99.90;;;;;;5012057;28;20181;-75
2022/06/24 07:51:22;;;;;;;2.83;2.53;;;24.80;99.90;;;;;;5011881;28;20256;-76
2022/06/24 07:53:48;;;;;;;3.20;2.38;;;25.20;99.90;;;;;;5011999;28;20203;-74
2022/06/24 07:58:58;;;;;;;2.80;2.40;;;24.90;99.90;;;;;;5012161;28;20196;-75
2022/06/24 08:01:24;;;;;;;3.35;2.47;;;24.80;99.90;;;;;;5012137;28;20222;-75
2022/06/24 08:03:49;;;;;;;2.70;2.30;;;25.00;99.90;;;;;;5011937;28;20276;-74
2022/06/24 08:06:15;;;;;;;2.72;2.45;;;25.20;99.90;;;;;;5011723;28;20213;-74
2022/06/24 08:08:41;;;;;;;5.13;2.70;;;25.40;99.90;;;;;;5012008;28;20161;-75
2022/06/24 08:11:07;;;;;;;3.33;2.67;;;25.60;99.90;;;;;;5012094;28;20595;-75
2022/06/24 08:13:33;;;;;;;4.13;2.70;;;25.50;99.90;;;;;;5025942;28;20200;-75
2022/06/24 08:15:59;;;;;;;3.35;2.60;;;25.40;99.90;;;;;;5031091;28;20208;-74
2022/06/24 08:18:25;;;;;;;2.95;2.65;;;25.50;99.90;;;;;;5031669;28;20613;-74
2022/06/24 08:20:50;;;;;;;4.35;2.85;;;25.80;99.90;;;;;;5031510;28;20291;-74
2022/06/24 08:23:16;;;;;;;2.47;2.28;;;26.00;99.90;;;;;;5031440;28;20193;-74
2022/06/24 08:25:42;;;;;;;4.82;2.92;;;26.00;99.90;;;;;;5030721;28;20596;-74
2022/06/24 08:28:07;;;;;;;3.30;2.90;;;26.00;99.90;;;;;;5030886;28;20256;-74
2022/06/24 08:30:34;;;;;;;2.67;2.58;;;25.90;99.90;;;;;;5031684;28;20200;-74
2022/06/24 08:33:00;;;;;;;4.72;3.00;;;26.00;99.90;;;;;;5031144;28;20192;-74
2022/06/24 08:35:26;;;;;;;4.03;2.88;;;26.00;99.90;;;;;;5018781;28;20683;-74
2022/06/24 08:37:52;;;;;;;3.53;2.33;;;26.00;99.90;;;;;;5012669;28;20181;-75
2022/06/24 08:40:19;;;;;;;3.80;2.55;;;26.10;99.90;;;;;;5015726;28;20288;-75
2022/06/24 08:42:45;;;;;;;2.20;1.83;;;26.20;99.90;;;;;;5033147;28;20228;-74
2022/06/24 08:45:12;;;;;;;4.18;2.45;;;26.30;99.90;;;;;;5023652;28;20224;-74
2022/06/24 08:47:39;;;;;;;3.15;2.80;;;26.40;99.90;;;;;;5015670;28;20170;-75
2022/06/24 08:50:07;;;;;;;5.05;3.00;;;26.50;99.90;;;;;;5015614;28;20185;-74
2022/06/24 08:52:33;;;;;;;3.72;3.00;;;26.50;99.90;;;;;;5015330;28;20276;-74
2022/06/24 08:55:00;;;;;;;3.55;2.30;;;26.70;99.90;;;;;;5024615;28;20649;-75
2022/06/24 08:57:25;;;;;;;3.25;3.00;;;27.00;99.90;;;;;;5035301;28;20835;-74
2022/06/24 08:59:51;;;;;;;4.18;2.80;;;27.30;99.90;;;;;;5034954;28;20246;-75
2022/06/24 09:02:18;;;;;;;2.95;2.75;;;27.70;99.90;;;;;;5030819;28;20256;-74
2022/06/24 09:04:44;;;;;;;3.28;2.40;;;27.90;99.90;;;;;;5015706;28;20221;-75
2022/06/24 09:07:37;;;;;;;3.97;2.65;;;27.90;99.90;;;;;;5015527;28;20169;-77
2022/06/24 09:10:20;;;;;;;2.42;2.22;;;27.80;99.90;;;;;;5025003;28;20204;-75
2022/06/24 09:12:48;;;;;;;2.72;2.53;;;27.60;99.90;;;;;;5035355;28;20196;-75
2022/06/24 09:15:14;;;;;;;3.03;2.75;;;27.50;99.90;;;;;;5032638;28;20641;-75
2022/06/24 09:17:42;;;;;;;3.78;3.00;;;27.30;99.90;;;;;;5024142;28;20212;-73
2022/06/24 09:20:24;;;;;;;2.97;2.75;;;27.10;99.90;;;;;;5044924;28;20200;-73
2022/06/24 09:23:00;;;;;;;3.47;3.17;;;26.70;99.90;;;;;;5022149;28;20197;-73
2022/06/24 09:25:26;;;;;;;3.45;3.15;;;26.50;99.90;;;;;;5026524;28;20173;-73
2022/06/24 09:27:52;;;;;;;3.45;3.13;;;26.30;99.90;;;;;;5023263;28;20188;-73
2022/06/24 09:30:17;;;;;;;5.60;3.55;;;26.10;99.90;;;;;;5034309;28;20206;-73
2022/06/24 09:32:54;;;;;;;4.30;3.13;;;25.90;99.90;;;;;;5034070;28;20204;-74
2022/06/24 09:35:22;;;;;;;3.88;3.00;;;25.70;99.90;;;;;;5033395;28;20189;-73
2022/06/24 09:37:50;;;;;;;3.40;3.03;;;25.40;99.90;;;;;;5031819;28;20181;-73
2022/06/24 09:40:31;;;;;;;3.42;2.80;;;25.20;99.90;;;;;;5034546;28;20258;-73
2022/06/24 09:42:58;;;;;;;2.83;2.63;;;25.00;99.90;;;;;;5034288;28;20246;-73
2022/06/24 09:45:25;;;;;;;4.03;3.38;;;24.80;99.90;;;;;;5016374;28;20188;-76
2022/06/24 09:47:52;;;;;;;4.30;3.00;;;24.80;99.90;;;;;;5032229;28;20187;-74
2022/06/24 09:50:20;;;;;;;2.65;2.40;;;24.70;99.90;;;;;;5043168;28;20173;-75
2022/06/24 09:52:45;;;;;;;2.80;2.60;;;24.70;99.90;;;;;;5015750;28;20871;-74
2022/06/24 09:55:12;;;;;;;5.10;2.65;;;24.70;99.90;;;;;;5014781;28;20189;-75
2022/06/24 09:57:40;;;;;;;2.58;2.35;;;24.60;99.90;;;;;;5019821;28;20181;-73
2022/06/24 10:02:53;;;;;;;5.22;2.20;;;24.50;99.90;;;;;;5016238;28;20216;-74
2022/06/24 10:05:20;;;;;;;3.85;2.40;;;24.30;99.90;;;;;;5028132;28;20177;-73
2022/06/24 10:07:47;;;;;;;2.70;2.10;;;24.10;99.90;;;;;;5034270;28;20196;-75
2022/06/24 10:10:15;;;;;;;6.38;3.15;;;23.80;99.90;;;;;;5028847;28;20278;-74
2022/06/24 10:12:47;;;;;;;6.97;2.53;;;23.60;99.90;;;;;;5036921;28;20337;-73
2022/06/24 10:15:20;;;;;;;4.97;2.70;;;23.00;99.90;;;;;;5033466;28;20177;-74
2022/06/24 10:17:47;;;;;;;2.90;2.40;;;22.30;99.90;;;;;;5034162;28;20199;-75
2022/06/24 10:20:14;;;;;;;6.40;2.72;;;21.70;99.90;;;;;;5029567;28;20716;-76
2022/06/24 10:22:50;;;;;;;7.03;2.88;;;21.40;99.90;;;;;;5033462;28;20204;-75
2022/06/24 10:25:20;;;;;;;4.97;2.90;;;21.10;99.90;;;;;;5033194;28;20179;-75
2022/06/24 10:27:57;;;;;;;3.45;3.15;;;20.90;99.90;;;;;;5032210;28;20168;-74
2022/06/24 10:30:56;;;;;;;3.28;3.05;;;20.60;99.90;;;;;;5027907;28;20196;-75
2022/06/24 10:33:25;;;;;;;5.07;3.63;;;20.50;99.90;;;;;;5021102;28;20327;-75
2022/06/24 10:36:05;;;;;;;5.20;3.17;;;20.40;99.90;;;;;;5024624;28;20535;-75
2022/06/24 10:38:37;;;;;;;4.20;3.70;;;20.20;99.90;;;;;;5017273;28;20199;-76
2022/06/24 10:41:04;;;;;;;3.53;2.97;;;20.00;99.90;;;;;;5021486;28;20196;-77
2022/06/24 10:43:41;;;;;;;5.50;2.58;;;19.90;99.90;;;;;;5030974;28;20750;-76
2022/06/24 10:46:13;;;;;;;4.22;2.50;;;19.80;99.90;;;;;;5025950;28;20948;-78
2022/06/24 10:48:50;;;;;;;5.38;2.42;;;19.80;99.90;;;;;;5022577;28;20260;-75
2022/06/24 10:51:21;;;;;;;2.88;2.65;;;19.80;99.90;;;;;;5021037;28;20178;-75
2022/06/24 10:54:01;;;;;;;4.40;3.20;;;20.10;99.90;;;;;;5019709;28;20196;-75
2022/06/24 10:56:44;;;;;;;4.47;2.38;;;20.40;99.90;;;;;;5016105;28;20185;-74
2022/06/24 10:59:10;;;;;;;3.13;2.13;;;20.40;99.90;;;;;;5022282;28;20177;-75
2022/06/24 11:01:42;;;;;;;4.32;2.03;;;20.60;99.90;;;;;;5014021;28;20173;-75
2022/06/24 11:04:10;;;;;;;2.65;2.00;;;20.70;99.90;;;;;;5023115;28;20201;-76
2022/06/24 11:06:36;;;;;;;1.98;1.77;;;20.80;99.90;;;;;;5029595;28;20242;-76
2022/06/24 11:09:06;;;;;;;2.22;1.80;;;20.60;99.90;;;;;;5023741;28;20181;-76
2022/06/24 11:11:33;;;;;;;2.88;1.80;;;20.50;99.90;;;;;;5029792;28;20208;-76
2022/06/24 11:13:59;;;;;;;4.00;2.33;;;20.50;99.90;;;;;;5030110;28;20203;-74
2022/06/24 11:16:28;;;;;;;5.13;2.55;;;20.40;99.90;;;;;;5032034;28;20173;-75
2022/06/24 11:18:54;;;;;;;3.35;2.20;;;20.40;99.90;;;;;;5032977;28;20341;-76
2022/06/24 11:21:20;;;;;;;2.83;2.30;;;20.30;99.90;;;;;;5026661;28;20213;-76
2022/06/24 11:23:47;;;;;;;3.22;3.00;;;20.20;99.90;;;;;;5030310;28;20189;-76
2022/06/24 11:26:14;;;;;;;2.83;2.65;;;20.30;99.90;;;;;;5032354;28;20262;-76
2022/06/24 11:28:41;;;;;;;5.47;2.80;;;20.20;99.90;;;;;;5032411;28;20165;-76
2022/06/24 11:31:24;;;;;;;2.47;2.20;;;20.30;99.90;;;;;;5025871;28;20203;-76
2022/06/24 11:34:05;;;;;;;3.17;2.10;;;20.70;99.90;;;;;;5017571;28;20330;-75
2022/06/24 11:36:31;;;;;;;2.63;2.00;;;20.90;99.90;;;;;;5022332;28;20271;-77
2022/06/24 11:38:59;;;;;;;4.20;2.30;;;20.80;99.90;;;;;;5025044;28;20179;-75
2022/06/24 11:41:30;;;;;;;3.53;2.55;;;20.80;99.90;;;;;;5025645;28;20215;-75
2022/06/24 11:43:56;;;;;;;6.40;2.72;;;21.30;99.90;;;;;;5020725;28;20328;-75
2022/06/24 11:46:22;;;;;;;4.07;2.42;;;21.80;99.90;;;;;;5021006;28;20543;-76
2022/06/24 11:48:48;;;;;;;4.78;2.35;;;22.30;99.90;;;;;;5025299;28;20176;-74
2022/06/24 11:51:18;;;;;;;2.38;2.17;;;22.90;99.90;;;;;;5026833;28;20706;-75
2022/06/24 11:54:03;;;;;;;3.40;2.15;;;23.50;99.90;;;;;;5032201;28;20695;-73
2022/06/24 11:56:31;;;;;;;2.85;2.05;;;24.50;99.90;;;;;;5023256;28;20188;-73
2022/06/24 11:59:05;;;;;;;2.50;2.22;;;25.70;99.90;;;;;;5022436;28;20215;-74
2022/06/24 12:01:31;;;;;;;4.47;2.05;;;26.50;99.90;;;;;;5024097;28;20204;-75
2022/06/24 12:04:05;;;;;;;1.40;1.30;;;26.90;99.90;;;;;;5021653;28;20185;-72
2022/06/24 12:06:32;;;;;;;2.97;1.30;;;26.90;99.90;;;;;;5014905;28;20188;-72
2022/06/24 12:08:58;;;;;;;2.80;1.40;;;26.70;99.90;;;;;;5013817;28;20174;-73
2022/06/24 12:11:24;;;;;;;1.67;1.02;;;26.50;99.90;;;;;;5014949;28;20175;-71
2022/06/24 12:14:04;;;;;;;1.80;1.55;;;26.30;99.90;;;;;;5018867;28;20261;-71
2022/06/24 12:17:02;;;;;;;1.40;1.27;;;26.10;99.90;;;;;;5016646;28;20212;-72
2022/06/24 12:19:31;;;;;;;1.23;1.13;;;25.80;99.90;;;;;;5017159;28;20205;-72
2022/06/24 12:22:11;;;;;;;1.38;1.25;;;25.90;99.90;;;;;;5022635;28;20173;-71
2022/06/24 12:24:39;;;;;;;1.35;1.10;;;26.10;99.90;;;;;;5022607;28;20632;-70
2022/06/24 12:27:06;;;;;;;1.45;1.35;;;26.20;99.90;;;;;;5017968;28;20184;-70
2022/06/24 12:29:37;;;;;;;2.70;1.13;;;26.40;99.90;;;;;;5018728;28;20579;-71
2022/06/24 12:32:04;;;;;;;1.65;1.35;;;26.40;99.90;;;;;;5019699;28;20189;-71
2022/06/24 12:34:32;;;;;;;2.03;0.95;;;26.30;99.90;;;;;;5017553;28;20197;-70
2022/06/24 12:37:03;;;;;;;2.13;1.38;;;26.20;99.90;;;;;;5017669;28;20181;-72
2022/06/24 12:39:35;;;;;;;3.53;1.27;;;25.80;99.90;;;;;;5027581;28;20708;-71
2022/06/24 12:42:02;;;;;;;2.63;1.30;;;25.40;99.90;;;;;;5022919;28;20669;-75
2022/06/24 12:44:41;;;;;;;2.00;1.40;;;25.20;99.90;;;;;;5026675;28;20196;-75
2022/06/24 12:52:45;;;;;;;2.50;1.45;;;24.20;99.90;;;;;;5022905;28;20231;-74
2022/06/24 12:55:15;;;;;;;2.03;1.40;;;24.20;99.90;;;;;;5018389;28;20193;-74
2022/06/24 12:57:41;;;;;;;2.08;1.65;;;24.40;99.90;;;;;;5017533;28;20228;-74
2022/06/24 13:00:10;;;;;;;1.98;1.48;;;24.70;99.90;;;;;;5014573;28;20205;-74
2022/06/24 13:02:40;;;;;;;2.10;1.30;;;25.20;99.90;;;;;;5019287;28;20193;-75
2022/06/24 13:05:06;;;;;;;2.58;1.33;;;25.60;99.90;;;;;;5019239;28;20221;-74